Enter the Airport ICAO Code

Search by Airport or City

Current Weather

SAZN | Presidente Perón International Airport

Neuquén, Neuquén, Argentina

Last Update 28 Minutes Ago

Clear Sky

Temperature of 21 ºC

Light Winds from NorthWest

Temperature

21 ºC

Dew Point Temperature

16 ºC

Relative Humidity

73.25 %

Wind Direction

NorthWest (320º, Without Significant Variations)

Wind Velocity

6 km/h (03 kt)

Gusts

None

Visibility

No Significant Reductions

Sea Level Pressure

1014 hPa (Hectopascals)

Layers of Clouds

None

METAR SAZN 270300Z 32003KT CAVOK 21/16 Q1014

Weather Forecast

SAZN | Presidente Perón International Airport

Neuquén, Neuquén, Argentina

Forecast valid for the next 21 Hours

From now on it is expected:

Clear Sky

Moderate Winds from East

From now on it is expected 3 hours with intermittent periods of:

Light Winds from Variable Directions

In 11 hours it is expected the begining of 4 hours with intermittent periods of:

Light to Moderate Winds from North

In 15 to 17 hours it is expected the begining of:

Moderate Winds from North

Maximum Temperature

34 ºC in 16 Hours

Minimum Temperature

16 ºC in 7 Hours

TAF SAZN 262300Z 2700/2724 09010KT CAVOK TX34/2719Z TN16/2710Z TEMPO 2700/2706 VRB03KT TEMPO 2714/2718 02005KT BECMG 2718/2720 02015KT